Time;durP1;ratioP1;P1;durP2;ratioP2;P2;SDS_P1;SDS_P2;PMS_P1;PMS_P2;Temp;Humidity;BMP_temperature;BMP_pressure;BME280_temperature;BME280_humidity;BME280_pressure;Samples;Min_cycle;Max_cycle;Signal;HPM_P1;HPM_P2
2021/08/15 00:01:36;;;;;;;5.78;2.60;;;17.40;99.90;;;;;;8250147;28;20097;-71
2021/08/15 00:05:38;;;;;;;5.90;2.70;;;17.40;99.90;;;;;;8250636;28;20050;-71
2021/08/15 00:09:40;;;;;;;5.78;2.78;;;17.40;99.90;;;;;;8257885;28;20105;-71
2021/08/15 00:13:42;;;;;;;5.93;2.50;;;17.30;99.90;;;;;;8257155;28;20042;-71
2021/08/15 00:17:43;;;;;;;7.55;3.00;;;17.40;99.90;;;;;;8256239;28;20182;-71
2021/08/15 00:21:45;;;;;;;5.97;2.38;;;17.40;99.90;;;;;;8266565;28;20050;-72
2021/08/15 00:25:47;;;;;;;7.07;3.17;;;17.30;99.90;;;;;;8256286;28;20053;-71
2021/08/15 00:29:49;;;;;;;5.75;2.55;;;17.30;99.90;;;;;;8251759;28;20054;-71
2021/08/15 00:33:51;;;;;;;5.82;2.80;;;17.30;99.90;;;;;;8248467;28;20070;-71
2021/08/15 00:37:52;;;;;;;6.15;2.75;;;17.30;99.90;;;;;;8257994;28;20065;-71
2021/08/15 00:41:55;;;;;;;6.50;3.20;;;17.30;99.90;;;;;;8258250;28;20121;-71
2021/08/15 00:46:05;;;;;;;6.15;3.22;;;17.30;99.90;;;;;;8252996;28;20058;-71
2021/08/15 00:50:08;;;;;;;7.65;3.38;;;17.20;99.90;;;;;;8256372;28;20157;-71
2021/08/15 00:54:09;;;;;;;9.82;3.28;;;17.20;99.90;;;;;;8245477;28;20042;-71
2021/08/15 00:58:11;;;;;;;6.63;3.20;;;17.20;99.90;;;;;;8262947;28;20475;-71
2021/08/15 01:02:13;;;;;;;6.07;3.05;;;17.10;99.90;;;;;;8257447;28;20523;-74
2021/08/15 01:06:15;;;;;;;6.03;3.10;;;17.10;99.90;;;;;;8253754;28;20062;-73
2021/08/15 01:10:17;;;;;;;7.25;3.05;;;17.10;99.90;;;;;;8254167;28;20474;-73
2021/08/15 01:14:19;;;;;;;5.57;2.90;;;17.10;99.90;;;;;;8249757;28;20050;-73
2021/08/15 01:18:24;;;;;;;8.07;3.88;;;17.00;99.90;;;;;;8257522;28;20093;-73
2021/08/15 01:22:27;;;;;;;6.95;3.13;;;17.00;99.90;;;;;;8248808;28;20478;-73
2021/08/15 01:26:29;;;;;;;6.82;3.22;;;16.90;99.90;;;;;;8256881;28;20051;-73
2021/08/15 01:30:30;;;;;;;8.07;3.55;;;16.90;99.90;;;;;;8269967;28;20051;-73
2021/08/15 01:34:33;;;;;;;6.68;3.50;;;16.90;99.90;;;;;;8255880;28;20053;-73
2021/08/15 01:38:37;;;;;;;7.57;3.55;;;16.80;99.90;;;;;;8249748;28;20069;-73
2021/08/15 01:42:39;;;;;;;7.47;3.90;;;16.80;99.90;;;;;;8252754;28;20856;-73
2021/08/15 01:46:40;;;;;;;8.23;3.60;;;16.80;99.90;;;;;;8256082;28;20105;-73
2021/08/15 01:50:42;;;;;;;6.32;3.30;;;16.70;99.90;;;;;;8258044;28;20050;-73
2021/08/15 01:54:44;;;;;;;7.32;3.55;;;16.70;99.90;;;;;;8252507;28;20042;-73
2021/08/15 01:58:46;;;;;;;6.57;3.40;;;16.70;99.90;;;;;;8248816;28;20073;-73
2021/08/15 02:02:48;;;;;;;8.05;3.70;;;16.70;99.90;;;;;;8245408;28;20047;-72
2021/08/15 02:06:50;;;;;;;8.88;3.60;;;16.70;99.90;;;;;;8255078;28;20061;-73
2021/08/15 02:10:52;;;;;;;7.80;3.40;;;16.70;99.90;;;;;;8250647;28;20077;-73
2021/08/15 02:14:53;;;;;;;7.15;3.67;;;16.70;99.90;;;;;;8250874;28;20057;-73
2021/08/15 02:18:55;;;;;;;6.38;3.42;;;16.70;99.90;;;;;;8253050;28;20046;-73
2021/08/15 02:22:58;;;;;;;10.57;3.80;;;16.70;99.90;;;;;;8248946;28;20054;-73
2021/08/15 02:27:00;;;;;;;5.93;3.60;;;16.60;99.90;;;;;;8252127;28;20054;-73
2021/08/15 02:31:01;;;;;;;6.75;3.47;;;16.60;99.90;;;;;;8250666;28;20050;-73
2021/08/15 02:35:05;;;;;;;6.40;3.20;;;16.60;99.90;;;;;;8253830;28;20038;-73
2021/08/15 02:39:06;;;;;;;7.85;4.55;;;16.60;99.90;;;;;;8254661;28;20050;-73
2021/08/15 02:43:08;;;;;;;7.82;3.83;;;16.60;99.90;;;;;;8247443;28;20054;-73
2021/08/15 02:47:10;;;;;;;6.68;3.42;;;16.50;99.90;;;;;;8250844;28;20057;-73
2021/08/15 02:51:12;;;;;;;7.22;3.28;;;16.50;99.90;;;;;;8249093;28;20077;-72
2021/08/15 02:55:14;;;;;;;7.90;3.42;;;16.50;99.90;;;;;;8249186;28;20543;-73
2021/08/15 02:59:16;;;;;;;7.30;3.65;;;16.40;99.90;;;;;;8253113;28;20478;-73
2021/08/15 03:03:17;;;;;;;7.15;3.63;;;16.40;99.90;;;;;;8260777;28;20059;-73
2021/08/15 03:07:19;;;;;;;6.90;3.65;;;16.40;99.90;;;;;;8269799;28;20108;-73
2021/08/15 03:11:21;;;;;;;8.00;4.00;;;16.40;99.90;;;;;;8255131;28;20046;-73
2021/08/15 03:15:23;;;;;;;8.32;3.72;;;16.40;99.90;;;;;;8245133;28;20046;-72
2021/08/15 03:19:25;;;;;;;7.95;3.53;;;16.30;99.90;;;;;;8253905;28;20081;-73
2021/08/15 03:23:26;;;;;;;7.63;3.92;;;16.30;99.90;;;;;;8247015;28;20514;-73
2021/08/15 03:27:28;;;;;;;8.18;3.95;;;16.30;99.90;;;;;;8242484;28;20940;-73
2021/08/15 03:31:30;;;;;;;6.60;4.00;;;16.30;99.90;;;;;;8253747;28;20062;-73
2021/08/15 03:35:32;;;;;;;9.40;4.50;;;16.20;99.90;;;;;;8264420;28;20049;-72
2021/08/15 03:39:33;;;;;;;7.05;3.80;;;16.20;99.90;;;;;;8250282;28;20090;-73
2021/08/15 03:43:35;;;;;;;9.00;3.85;;;16.10;99.90;;;;;;8249558;28;20490;-73
2021/08/15 03:47:37;;;;;;;7.38;4.00;;;16.10;99.90;;;;;;8255495;28;20081;-73
2021/08/15 03:51:39;;;;;;;8.25;4.55;;;16.20;99.90;;;;;;8263000;28;20069;-73
2021/08/15 03:55:40;;;;;;;7.60;4.10;;;16.20;99.90;;;;;;8249053;28;20050;-73
2021/08/15 03:59:42;;;;;;;7.82;4.30;;;16.20;99.90;;;;;;8245580;28;20054;-73
2021/08/15 04:03:44;;;;;;;10.18;4.35;;;16.10;99.90;;;;;;8248623;28;20062;-73
2021/08/15 04:07:46;;;;;;;7.93;4.25;;;16.10;99.90;;;;;;8250598;28;20077;-73
2021/08/15 04:11:48;;;;;;;6.95;3.60;;;16.20;99.90;;;;;;8253886;28;20095;-73
2021/08/15 04:15:50;;;;;;;10.45;4.38;;;16.10;99.90;;;;;;8250854;28;20054;-73
2021/08/15 04:19:52;;;;;;;10.55;5.00;;;16.10;99.90;;;;;;8264827;28;20046;-73
2021/08/15 04:23:53;;;;;;;10.68;4.93;;;16.10;99.90;;;;;;8261487;28;20113;-73
2021/08/15 04:27:55;;;;;;;7.95;4.60;;;16.00;99.90;;;;;;8253335;28;20073;-73
2021/08/15 04:31:57;;;;;;;11.27;5.57;;;16.00;99.90;;;;;;8248947;28;20043;-73
2021/08/15 04:35:59;;;;;;;9.52;4.50;;;16.00;99.90;;;;;;8251118;28;20046;-72
2021/08/15 04:40:00;;;;;;;9.32;4.35;;;16.00;99.90;;;;;;8256834;28;20050;-72
2021/08/15 04:44:03;;;;;;;8.70;4.30;;;16.00;99.90;;;;;;8253772;28;20050;-72
2021/08/15 04:48:04;;;;;;;9.20;4.55;;;16.00;99.90;;;;;;8252960;28;20085;-72
2021/08/15 04:52:06;;;;;;;12.07;4.97;;;16.00;99.90;;;;;;8270866;28;20046;-72
2021/08/15 04:56:08;;;;;;;8.57;4.75;;;16.10;99.90;;;;;;8260302;28;20160;-72
2021/08/15 05:00:10;;;;;;;9.68;5.53;;;16.00;99.90;;;;;;8253945;28;20055;-72
2021/08/15 05:04:12;;;;;;;11.13;6.15;;;16.00;99.90;;;;;;8260436;28;20061;-72
2021/08/15 05:08:14;;;;;;;11.63;5.25;;;16.10;99.90;;;;;;8250874;28;20482;-72
2021/08/15 05:12:16;;;;;;;10.70;5.68;;;16.20;99.90;;;;;;8262789;28;20487;-72
2021/08/15 05:16:17;;;;;;;10.38;5.00;;;16.20;99.90;;;;;;8254572;28;20042;-72
2021/08/15 05:20:19;;;;;;;8.90;5.65;;;16.20;99.90;;;;;;8256597;28;20081;-73
2021/08/15 05:24:21;;;;;;;12.52;5.85;;;16.20;99.90;;;;;;8250874;28;20402;-72
2021/08/15 05:28:23;;;;;;;11.30;5.97;;;16.20;99.90;;;;;;8257632;28;20410;-72
2021/08/15 05:32:24;;;;;;;10.27;5.50;;;16.20;99.90;;;;;;8250534;28;20502;-72
2021/08/15 05:36:26;;;;;;;10.38;5.53;;;16.30;99.90;;;;;;8255887;28;20470;-73
2021/08/15 05:40:28;;;;;;;14.40;6.57;;;16.30;99.90;;;;;;8255018;28;20043;-72
2021/08/15 05:44:30;;;;;;;12.75;6.65;;;16.40;99.90;;;;;;8256807;28;20682;-72
2021/08/15 05:48:35;;;;;;;13.70;6.43;;;16.40;99.90;;;;;;8253984;28;20094;-73
2021/08/15 05:52:37;;;;;;;13.10;7.05;;;16.50;99.90;;;;;;8270782;28;20061;-73
2021/08/15 05:56:39;;;;;;;10.95;6.70;;;16.50;99.90;;;;;;8252394;28;20405;-73
2021/08/15 06:00:40;;;;;;;13.43;7.18;;;16.50;99.90;;;;;;8256760;28;20077;-72
2021/08/15 06:04:42;;;;;;;11.50;7.18;;;16.60;99.90;;;;;;8250338;28;20046;-72
2021/08/15 06:08:44;;;;;;;11.85;6.60;;;16.60;99.90;;;;;;8251084;28;20113;-71
2021/08/15 06:12:46;;;;;;;11.30;6.57;;;16.70;99.90;;;;;;8254384;28;20100;-72
2021/08/15 06:16:48;;;;;;;12.57;6.18;;;16.70;99.90;;;;;;8248520;28;20042;-72
2021/08/15 06:20:49;;;;;;;13.60;7.30;;;16.80;99.90;;;;;;8255842;28;20050;-72
2021/08/15 06:24:51;;;;;;;13.90;7.75;;;16.90;99.90;;;;;;8252823;28;20109;-72
2021/08/15 06:28:53;;;;;;;14.23;7.45;;;16.90;99.90;;;;;;8254623;28;20042;-72
2021/08/15 06:32:56;;;;;;;14.10;7.28;;;16.90;99.90;;;;;;8245611;28;20056;-72
2021/08/15 06:36:58;;;;;;;11.38;6.97;;;17.00;99.90;;;;;;8268272;28;20336;-72
2021/08/15 06:41:00;;;;;;;12.73;7.18;;;17.00;99.90;;;;;;8248162;28;20141;-72
2021/08/15 06:45:02;;;;;;;14.63;7.38;;;17.10;99.90;;;;;;8245599;28;20388;-72
2021/08/15 06:49:04;;;;;;;12.43;6.70;;;17.20;99.90;;;;;;8253931;28;20050;-72
2021/08/15 06:53:06;;;;;;;11.88;6.47;;;17.20;99.90;;;;;;8249864;28;20399;-72
2021/08/15 06:57:07;;;;;;;15.10;7.93;;;17.30;99.90;;;;;;8253762;28;20494;-72
2021/08/15 07:01:09;;;;;;;15.27;7.80;;;17.40;99.90;;;;;;8256120;28;20459;-72
2021/08/15 07:05:11;;;;;;;13.68;7.15;;;17.50;99.90;;;;;;8247957;28;20113;-73
2021/08/15 07:09:13;;;;;;;13.10;7.55;;;17.60;99.90;;;;;;8255451;28;20054;-72
2021/08/15 07:13:20;;;;;;;18.08;8.38;;;17.70;99.90;;;;;;8250807;28;20406;-73
2021/08/15 07:17:21;;;;;;;13.23;7.88;;;17.80;99.90;;;;;;8238708;28;20096;-72
2021/08/15 07:21:23;;;;;;;13.02;6.95;;;17.80;99.90;;;;;;8245444;28;20054;-73
2021/08/15 07:25:28;;;;;;;16.95;7.75;;;17.90;99.90;;;;;;8239667;28;20066;-72
2021/08/15 07:29:31;;;;;;;16.67;6.95;;;18.00;99.90;;;;;;8237196;28;20078;-74
2021/08/15 07:33:32;;;;;;;14.45;7.45;;;18.10;99.90;;;;;;8250437;28;20069;-72
2021/08/15 07:37:36;;;;;;;14.50;7.78;;;18.20;99.90;;;;;;8248693;28;20089;-72
2021/08/15 07:41:37;;;;;;;13.25;6.55;;;18.30;99.90;;;;;;8243945;28;20126;-71
2021/08/15 07:45:39;;;;;;;15.80;7.07;;;18.40;99.90;;;;;;8245418;28;20057;-72
2021/08/15 07:49:41;;;;;;;11.40;7.03;;;18.50;99.90;;;;;;8247933;28;20066;-72
2021/08/15 07:53:43;;;;;;;16.08;6.70;;;18.70;99.90;;;;;;8246573;28;20047;-72
2021/08/15 07:57:44;;;;;;;16.80;7.65;;;18.70;99.90;;;;;;8248928;28;20042;-72
2021/08/15 08:01:46;;;;;;;14.80;7.43;;;18.80;99.90;;;;;;8243462;28;20485;-72
2021/08/15 08:05:49;;;;;;;11.88;6.78;;;18.90;99.90;;;;;;8248881;28;20062;-72
2021/08/15 08:09:51;;;;;;;14.32;7.50;;;19.10;99.90;;;;;;8250657;28;20075;-72
2021/08/15 08:13:54;;;;;;;13.45;7.60;;;19.20;99.90;;;;;;8252702;28;20403;-72
2021/08/15 08:17:55;;;;;;;13.07;6.18;;;19.20;99.90;;;;;;8257193;28;20421;-73
2021/08/15 08:21:59;;;;;;;13.30;5.88;;;19.20;99.90;;;;;;8253679;28;20113;-73
2021/08/15 08:26:01;;;;;;;16.02;7.20;;;19.30;99.90;;;;;;8250458;28;20050;-72
2021/08/15 08:30:04;;;;;;;13.50;6.35;;;19.30;99.90;;;;;;8252486;28;20069;-72
2021/08/15 08:34:05;;;;;;;15.82;7.75;;;19.40;99.90;;;;;;8250749;28;20069;-72
2021/08/15 08:38:07;;;;;;;15.15;6.28;;;19.50;99.90;;;;;;8251440;28;20463;-72
2021/08/15 08:42:11;;;;;;;12.05;6.32;;;19.60;99.90;;;;;;8254227;28;20042;-72
2021/08/15 08:46:13;;;;;;;12.88;6.47;;;19.80;99.90;;;;;;8269533;28;20054;-72
2021/08/15 08:50:16;;;;;;;17.20;6.82;;;19.80;99.90;;;;;;8258050;28;20141;-72
2021/08/15 08:54:18;;;;;;;18.77;7.28;;;19.90;99.90;;;;;;8249579;28;20061;-72
2021/08/15 08:58:19;;;;;;;15.90;6.55;;;20.00;99.90;;;;;;8255563;28;20058;-72
2021/08/15 09:02:21;;;;;;;12.98;6.53;;;20.10;99.90;;;;;;8253640;28;20133;-72
2021/08/15 09:06:25;;;;;;;10.80;5.50;;;20.10;99.90;;;;;;8254814;28;20057;-72
2021/08/15 09:10:38;;;;;;;14.07;6.28;;;20.10;99.90;;;;;;8255062;28;20061;-72
2021/08/15 09:14:39;;;;;;;11.77;4.78;;;20.10;99.90;;;;;;8255664;28;20109;-72
2021/08/15 09:18:41;;;;;;;10.57;5.60;;;20.20;99.90;;;;;;8257002;28;20043;-72
2021/08/15 09:22:43;;;;;;;10.80;5.40;;;20.30;99.90;;;;;;8265681;28;20065;-72
2021/08/15 09:26:58;;;;;;;11.98;4.35;;;20.50;99.90;;;;;;8248965;28;20418;-72
2021/08/15 09:31:15;;;;;;;9.00;4.28;;;20.60;99.90;;;;;;8253337;28;20046;-72
2021/08/15 09:35:29;;;;;;;13.63;5.05;;;20.70;99.90;;;;;;8263724;28;20042;-72
2021/08/15 09:39:34;;;;;;;12.32;5.47;;;20.80;99.90;;;;;;8257770;28;20049;-72
2021/08/15 09:43:35;;;;;;;10.57;4.38;;;20.90;99.90;;;;;;8250462;28;20065;-72
2021/08/15 09:47:37;;;;;;;10.15;4.43;;;21.00;99.90;;;;;;8251690;28;20051;-72
2021/08/15 09:51:41;;;;;;;11.85;5.78;;;21.00;99.90;;;;;;8253258;28;20090;-72
2021/08/15 09:55:45;;;;;;;11.70;4.65;;;21.10;99.90;;;;;;8249654;28;20073;-72
2021/08/15 09:59:46;;;;;;;10.95;4.82;;;21.20;99.90;;;;;;8259052;28;20058;-71
2021/08/15 10:03:49;;;;;;;13.00;4.93;;;21.20;99.90;;;;;;8253119;28;20049;-72
2021/08/15 10:07:52;;;;;;;11.23;4.38;;;21.10;99.90;;;;;;8257556;28;20368;-72
2021/08/15 10:11:54;;;;;;;11.52;4.57;;;21.10;99.90;;;;;;8256992;28;20146;-72
2021/08/15 10:16:01;;;;;;;13.82;5.15;;;21.10;99.90;;;;;;8256215;28;20486;-73
2021/08/15 10:20:05;;;;;;;;;;;21.10;99.90;;;;;;8256009;28;20133;-72
2021/08/15 10:24:09;;;;;;;9.38;4.00;;;21.10;99.90;;;;;;8254251;28;20362;-72
2021/08/15 10:28:29;;;;;;;9.38;4.07;;;21.10;99.90;;;;;;8268866;28;20482;-72
2021/08/15 10:32:30;;;;;;;10.90;3.90;;;21.30;99.90;;;;;;8261116;28;20058;-72
2021/08/15 10:36:32;;;;;;;10.82;4.03;;;21.50;99.90;;;;;;8249665;28;20494;-72
2021/08/15 10:40:43;;;;;;;8.50;3.58;;;21.70;99.90;;;;;;8250196;28;20053;-72
2021/08/15 10:45:05;;;;;;;9.93;3.97;;;21.80;99.90;;;;;;8249141;28;20050;-72
2021/08/15 10:49:08;;;;;;;9.57;4.22;;;21.80;99.90;;;;;;8265346;28;20136;-72
2021/08/15 10:53:28;;;;;;;8.30;3.75;;;21.90;99.90;;;;;;8257691;28;20042;-72
2021/08/15 10:57:46;;;;;;;8.60;3.88;;;21.80;99.90;;;;;;8252904;28;20061;-72
2021/08/15 11:01:49;;;;;;;8.98;4.13;;;21.80;99.90;;;;;;8249291;28;20050;-71
2021/08/15 11:05:51;;;;;;;9.05;3.53;;;21.90;99.90;;;;;;8257586;28;20089;-72
2021/08/15 11:09:56;;;;;;;8.95;3.83;;;21.90;99.90;;;;;;8253125;28;20211;-72
2021/08/15 11:14:17;;;;;;;10.68;3.70;;;22.00;99.90;;;;;;8263826;28;20043;-72
2021/08/15 11:18:19;;;;;;;6.47;2.90;;;22.10;99.90;;;;;;8253986;28;20077;-72
2021/08/15 11:22:20;;;;;;;6.80;2.72;;;22.20;99.90;;;;;;8251717;28;20061;-72
2021/08/15 11:26:23;;;;;;;21.52;2.35;;;22.30;99.90;;;;;;8256666;28;20052;-72
2021/08/15 11:30:25;;;;;;;5.47;2.08;;;22.40;99.90;;;;;;8252151;28;20064;-72
2021/08/15 11:34:28;;;;;;;6.78;2.25;;;22.50;99.90;;;;;;8249090;28;20058;-72
2021/08/15 11:38:29;;;;;;;6.25;2.00;;;22.60;99.90;;;;;;8250614;28;20057;-72
2021/08/15 11:42:31;;;;;;;5.15;2.00;;;22.60;99.90;;;;;;8254917;28;20417;-73
2021/08/15 11:46:33;;;;;;;5.10;1.90;;;22.70;99.90;;;;;;8256880;28;20089;-72
2021/08/15 11:50:36;;;;;;;4.22;1.67;;;22.80;99.90;;;;;;8245564;28;20798;-72
2021/08/15 11:54:39;;;;;;;4.75;1.60;;;22.80;99.90;;;;;;8251152;28;20082;-73
2021/08/15 11:58:45;;;;;;;4.65;1.77;;;22.90;99.90;;;;;;8250296;28;20702;-72
2021/08/15 12:03:06;;;;;;;5.30;2.23;;;22.90;99.90;;;;;;8245287;28;20054;-72
2021/08/15 12:07:08;;;;;;;4.68;1.80;;;23.00;99.90;;;;;;8262941;28;20805;-73
2021/08/15 12:11:28;;;;;;;4.78;1.85;;;22.80;99.90;;;;;;8261340;28;20113;-72
2021/08/15 12:15:30;;;;;;;4.28;1.88;;;22.70;99.90;;;;;;8253065;28;20061;-72
2021/08/15 12:19:32;;;;;;;4.38;1.80;;;22.80;99.90;;;;;;8259488;28;20794;-72
2021/08/15 12:23:34;;;;;;;5.03;2.10;;;22.90;99.90;;;;;;8254703;28;20050;-72
2021/08/15 12:27:36;;;;;;;4.65;1.70;;;22.90;99.90;;;;;;8251782;28;20058;-73
2021/08/15 12:31:38;;;;;;;4.55;1.80;;;22.90;99.90;;;;;;8256216;28;20046;-70
2021/08/15 12:35:39;;;;;;;4.85;1.60;;;23.00;99.90;;;;;;8270969;28;20105;-70
2021/08/15 12:39:43;;;;;;;4.55;2.03;;;23.00;99.90;;;;;;8253665;28;20057;-70
2021/08/15 12:44:04;;;;;;;4.68;1.60;;;23.10;99.90;;;;;;8258653;28;20042;-72
2021/08/15 12:48:08;;;;;;;5.38;1.80;;;23.30;99.90;;;;;;8254788;28;20054;-73
2021/08/15 12:52:21;;;;;;;6.15;1.80;;;23.30;99.90;;;;;;8254705;28;20093;-72
2021/08/15 12:56:25;;;;;;;5.80;1.90;;;23.30;99.90;;;;;;8257327;28;20418;-72
2021/08/15 13:00:28;;;;;;;4.95;1.65;;;23.30;99.90;;;;;;8260067;28;20054;-73
2021/08/15 13:04:30;;;;;;;3.97;1.13;;;23.30;99.90;;;;;;8264309;28;20057;-72
2021/08/15 13:08:32;;;;;;;6.15;2.00;;;23.30;99.90;;;;;;8264881;28;20047;-72
2021/08/15 13:12:35;;;;;;;5.28;1.92;;;23.30;99.90;;;;;;8262469;28;20505;-73
2021/08/15 13:16:37;;;;;;;5.82;1.80;;;23.30;99.90;;;;;;8262262;28;20054;-72
2021/08/15 13:20:39;;;;;;;6.53;2.10;;;23.40;99.90;;;;;;8260903;28;20058;-73
2021/08/15 13:24:41;;;;;;;5.65;2.20;;;23.40;99.90;;;;;;8261231;28;20093;-70
2021/08/15 13:28:43;;;;;;;4.88;1.85;;;23.50;99.90;;;;;;8261481;28;21874;-70
2021/08/15 13:32:44;;;;;;;7.10;2.20;;;23.50;99.90;;;;;;8261977;28;20070;-71
2021/08/15 13:36:46;;;;;;;5.75;2.30;;;23.50;99.90;;;;;;8278720;28;20479;-70
2021/08/15 13:40:48;;;;;;;5.15;2.20;;;23.50;99.90;;;;;;8276297;28;20070;-71
2021/08/15 13:44:51;;;;;;;6.47;2.45;;;23.60;99.90;;;;;;8260575;28;20054;-71
2021/08/15 13:48:53;;;;;;;6.70;2.70;;;23.70;99.90;;;;;;8254538;28;20046;-70
2021/08/15 13:52:55;;;;;;;6.72;2.90;;;23.80;99.90;;;;;;8258691;28;20050;-70
2021/08/15 13:56:57;;;;;;;9.57;2.83;;;23.90;99.90;;;;;;8263199;28;20038;-70
2021/08/15 14:00:59;;;;;;;6.75;2.55;;;23.90;99.90;;;;;;8261487;28;20054;-71
2021/08/15 14:05:02;;;;;;;5.80;2.50;;;23.90;99.90;;;;;;8252471;28;20133;-71
2021/08/15 14:09:03;;;;;;;5.97;2.67;;;23.90;99.90;;;;;;8257255;28;20134;-70
2021/08/15 14:13:05;;;;;;;7.25;2.67;;;23.90;99.90;;;;;;8254798;28;20085;-71
2021/08/15 14:17:09;;;;;;;5.07;2.35;;;23.90;99.90;;;;;;8257161;28;20717;-71
2021/08/15 14:21:12;;;;;;;6.57;2.78;;;23.80;99.90;;;;;;8256177;28;20137;-70
2021/08/15 14:25:14;;;;;;;6.50;3.13;;;23.80;99.90;;;;;;8261494;28;20054;-70
2021/08/15 14:29:16;;;;;;;7.18;3.17;;;23.70;99.90;;;;;;8260272;28;20050;-70
2021/08/15 14:33:23;;;;;;;6.20;2.60;;;23.70;99.90;;;;;;8260258;28;20112;-70
2021/08/15 14:37:25;;;;;;;7.10;3.10;;;23.80;99.90;;;;;;8259426;28;20066;-71
2021/08/15 14:41:27;;;;;;;6.88;3.05;;;23.90;99.90;;;;;;8260135;28;20053;-71
2021/08/15 14:45:29;;;;;;;5.40;2.90;;;23.90;99.90;;;;;;8259783;28;20054;-70
2021/08/15 14:49:31;;;;;;;7.15;3.30;;;23.90;99.90;;;;;;8259480;28;20414;-71
2021/08/15 14:53:34;;;;;;;8.80;3.20;;;24.00;99.90;;;;;;8259949;28;20054;-71
2021/08/15 14:57:36;;;;;;;6.95;3.33;;;24.00;99.90;;;;;;8257131;28;20049;-71
2021/08/15 15:01:38;;;;;;;9.52;3.45;;;24.00;99.90;;;;;;8259386;28;20474;-70
2021/08/15 15:05:40;;;;;;;8.68;3.33;;;24.00;99.90;;;;;;8256610;28;20050;-71
2021/08/15 15:09:42;;;;;;;8.45;4.00;;;24.00;99.90;;;;;;8257381;28;20061;-70
2021/08/15 15:13:43;;;;;;;8.32;3.40;;;24.00;99.90;;;;;;8256890;28;20061;-70
2021/08/15 15:17:46;;;;;;;7.45;3.42;;;24.00;99.90;;;;;;8254636;28;20050;-71
2021/08/15 15:21:49;;;;;;;8.50;3.60;;;24.00;99.90;;;;;;8251049;28;20057;-71
2021/08/15 15:25:51;;;;;;;9.75;3.78;;;24.10;99.90;;;;;;8248958;28;20374;-71
2021/08/15 15:29:52;;;;;;;7.80;3.22;;;24.10;99.90;;;;;;8250058;28;20051;-71
2021/08/15 15:33:56;;;;;;;12.32;3.45;;;24.20;99.90;;;;;;8247424;28;21087;-71
2021/08/15 15:38:00;;;;;;;9.02;3.05;;;24.30;99.90;;;;;;8251043;28;20046;-71
2021/08/15 15:42:01;;;;;;;7.70;3.10;;;24.40;99.90;;;;;;8251769;28;20050;-70
2021/08/15 15:46:04;;;;;;;7.25;3.25;;;24.60;99.90;;;;;;8249528;28;20061;-71
2021/08/15 15:50:07;;;;;;;7.82;3.42;;;24.80;99.90;;;;;;8259297;28;20403;-71
2021/08/15 15:54:08;;;;;;;7.10;3.40;;;24.90;99.90;;;;;;8245406;28;20052;-71
2021/08/15 15:58:11;;;;;;;7.20;3.45;;;24.80;99.90;;;;;;8239227;28;20047;-70
2021/08/15 16:02:13;;;;;;;6.07;3.13;;;24.60;99.90;;;;;;8250095;28;20053;-71
2021/08/15 16:06:16;;;;;;;8.43;3.63;;;24.40;99.90;;;;;;8264747;28;20054;-71
2021/08/15 16:10:17;;;;;;;7.05;3.35;;;24.30;99.90;;;;;;8248981;28;20062;-70
2021/08/15 16:14:21;;;;;;;7.78;3.30;;;24.20;99.90;;;;;;8249358;28;20046;-71
2021/08/15 16:18:23;;;;;;;7.70;3.53;;;24.00;99.90;;;;;;8246883;28;20490;-71
2021/08/15 16:22:25;;;;;;;8.77;3.55;;;24.00;99.90;;;;;;8229705;28;20058;-71
2021/08/15 16:26:26;;;;;;;7.05;3.22;;;23.90;99.90;;;;;;8247703;28;20058;-71
2021/08/15 16:30:28;;;;;;;6.38;3.25;;;23.90;99.90;;;;;;8251803;28;20050;-71
2021/08/15 16:34:30;;;;;;;6.70;3.42;;;23.90;99.90;;;;;;8250579;28;20065;-71
2021/08/15 16:38:33;;;;;;;8.45;3.78;;;23.90;99.90;;;;;;8254316;28;20088;-71
2021/08/15 16:42:34;;;;;;;7.60;3.38;;;23.80;99.90;;;;;;8246520;28;20050;-70
2021/08/15 16:46:36;;;;;;;9.77;3.70;;;23.80;99.90;;;;;;8271154;28;20054;-71
2021/08/15 16:50:38;;;;;;;6.70;3.55;;;23.80;99.90;;;;;;8251554;28;20054;-71
2021/08/15 16:54:40;;;;;;;11.15;3.85;;;23.70;99.90;;;;;;8255435;28;20066;-71
2021/08/15 16:58:42;;;;;;;12.02;3.60;;;23.60;99.90;;;;;;8255305;28;20042;-71
2021/08/15 17:02:44;;;;;;;10.15;3.60;;;23.60;99.90;;;;;;8252337;28;20050;-71
2021/08/15 17:06:46;;;;;;;10.00;3.63;;;23.50;99.90;;;;;;8257138;28;20431;-71
2021/08/15 17:10:48;;;;;;;10.73;3.50;;;23.40;99.90;;;;;;8254163;28;20069;-71
2021/08/15 17:14:49;;;;;;;8.68;3.60;;;23.30;99.90;;;;;;8255031;28;20060;-71
2021/08/15 17:18:51;;;;;;;7.40;3.03;;;23.20;99.90;;;;;;8254688;28;20161;-71
2021/08/15 17:22:53;;;;;;;8.32;3.35;;;23.20;99.90;;;;;;8246111;28;20054;-70
2021/08/15 17:26:55;;;;;;;6.10;2.90;;;23.10;99.90;;;;;;8255388;28;20050;-71
2021/08/15 17:30:58;;;;;;;6.70;3.10;;;23.00;99.90;;;;;;8250883;28;20065;-71
2021/08/15 17:35:00;;;;;;;7.00;3.20;;;23.00;99.90;;;;;;8250761;28;20076;-71
2021/08/15 17:39:02;;;;;;;6.22;2.70;;;22.90;99.90;;;;;;8254242;28;20059;-71
2021/08/15 17:43:07;;;;;;;6.90;2.50;;;22.90;99.90;;;;;;8251510;28;20096;-71
2021/08/15 17:47:09;;;;;;;5.72;2.72;;;22.80;99.90;;;;;;8254935;28;20058;-71
2021/08/15 17:51:11;;;;;;;8.50;3.17;;;22.80;99.90;;;;;;8251265;28;20051;-70
2021/08/15 17:55:12;;;;;;;8.05;3.08;;;22.70;99.90;;;;;;8250835;28;20050;-70
2021/08/15 17:59:14;;;;;;;8.20;3.38;;;22.70;99.90;;;;;;8246867;28;20968;-70
2021/08/15 18:03:17;;;;;;;7.43;3.22;;;22.60;99.90;;;;;;8250632;28;20117;-71
2021/08/15 18:07:19;;;;;;;10.27;3.75;;;22.60;99.90;;;;;;8253322;28;20054;-70
2021/08/15 18:11:21;;;;;;;8.32;3.80;;;22.60;99.90;;;;;;8246771;28;20081;-71
2021/08/15 18:15:22;;;;;;;6.97;3.50;;;22.50;99.90;;;;;;8252326;28;20053;-70
2021/08/15 18:19:24;;;;;;;7.75;3.17;;;22.50;99.90;;;;;;8251999;28;20050;-70
2021/08/15 18:23:27;;;;;;;9.65;3.95;;;22.40;99.90;;;;;;8252629;28;20108;-70
2021/08/15 18:27:28;;;;;;;7.25;3.72;;;22.40;99.90;;;;;;8250787;28;20145;-71
2021/08/15 18:31:30;;;;;;;8.15;3.92;;;22.30;99.90;;;;;;8252189;28;20142;-71
2021/08/15 18:35:32;;;;;;;6.68;3.10;;;22.30;99.90;;;;;;8249896;28;20082;-71
2021/08/15 18:39:35;;;;;;;8.48;3.50;;;22.20;99.90;;;;;;8250369;28;20062;-73
2021/08/15 18:43:36;;;;;;;6.63;2.97;;;22.20;99.90;;;;;;8251759;28;20050;-73
2021/08/15 18:47:38;;;;;;;6.03;3.25;;;22.10;99.90;;;;;;8250984;28;20414;-73
2021/08/15 18:51:40;;;;;;;7.22;3.08;;;22.10;99.90;;;;;;8252160;28;20062;-73
2021/08/15 18:55:42;;;;;;;6.35;2.90;;;22.00;99.90;;;;;;8266960;28;20050;-73
2021/08/15 18:59:46;;;;;;;8.55;3.45;;;22.00;99.90;;;;;;8248514;28;20424;-73
2021/08/15 19:03:47;;;;;;;7.55;3.03;;;21.90;99.90;;;;;;8251093;28;20053;-73
2021/08/15 19:07:50;;;;;;;5.97;2.83;;;21.90;99.90;;;;;;8249342;28;20050;-72
2021/08/15 19:11:52;;;;;;;5.82;2.53;;;21.80;99.90;;;;;;8252031;28;20112;-72
2021/08/15 19:15:54;;;;;;;6.90;3.28;;;21.80;99.90;;;;;;8250366;28;20072;-73
2021/08/15 19:19:56;;;;;;;7.85;3.33;;;21.60;99.90;;;;;;8247808;28;20097;-72
2021/08/15 19:23:58;;;;;;;7.40;3.47;;;21.40;99.90;;;;;;8247488;28;20073;-73
2021/08/15 19:28:00;;;;;;;7.20;3.08;;;21.20;99.90;;;;;;8254769;28;20046;-73
2021/08/15 19:32:03;;;;;;;8.05;3.58;;;21.10;99.90;;;;;;8242033;28;20120;-73
2021/08/15 19:36:05;;;;;;;7.10;3.05;;;21.00;99.90;;;;;;8246628;28;20092;-72
2021/08/15 19:40:09;;;;;;;5.45;2.97;;;20.90;99.90;;;;;;8246554;28;20450;-72
2021/08/15 19:44:11;;;;;;;6.78;2.70;;;20.90;99.90;;;;;;8248705;28;20053;-73
2021/08/15 19:48:13;;;;;;;6.75;2.80;;;20.80;99.90;;;;;;8247181;28;20042;-72
2021/08/15 19:52:15;;;;;;;6.93;2.78;;;20.60;99.90;;;;;;8246434;28;20073;-73
2021/08/15 19:56:17;;;;;;;5.65;2.67;;;20.40;99.90;;;;;;8249341;28;20062;-72
2021/08/15 20:00:19;;;;;;;5.78;2.55;;;20.30;99.90;;;;;;8242627;28;20058;-73
2021/08/15 20:04:21;;;;;;;6.15;2.55;;;20.10;99.90;;;;;;8249423;28;20038;-73
2021/08/15 20:08:23;;;;;;;5.40;2.28;;;20.00;99.90;;;;;;8254981;28;20066;-72
2021/08/15 20:12:25;;;;;;;4.80;2.20;;;19.90;99.90;;;;;;8240742;28;20050;-72
2021/08/15 20:16:26;;;;;;;5.25;2.00;;;19.90;99.90;;;;;;8255471;28;20061;-72
2021/08/15 20:20:28;;;;;;;4.55;2.08;;;19.80;99.90;;;;;;8253796;28;20130;-72
2021/08/15 20:24:33;;;;;;;6.43;1.70;;;19.80;99.90;;;;;;8253578;28;20105;-72
2021/08/15 20:28:35;;;;;;;5.10;2.00;;;19.70;99.90;;;;;;8254343;28;20061;-72
2021/08/15 20:32:37;;;;;;;5.25;1.73;;;19.60;99.90;;;;;;8253413;28;20046;-73
2021/08/15 20:36:38;;;;;;;7.53;1.98;;;19.50;99.90;;;;;;8270449;28;20042;-72
2021/08/15 20:40:40;;;;;;;5.40;1.58;;;19.50;99.90;;;;;;8260931;28;20621;-72
2021/08/15 20:44:42;;;;;;;5.15;1.90;;;19.50;99.90;;;;;;8253062;28;20042;-72
2021/08/15 20:48:43;;;;;;;5.15;2.20;;;19.40;99.90;;;;;;8251401;28;20054;-73
2021/08/15 20:52:45;;;;;;;5.00;1.63;;;19.30;99.90;;;;;;8251055;28;20050;-73
2021/08/15 20:56:49;;;;;;;9.40;2.00;;;19.20;99.90;;;;;;8254180;28;20403;-73